Time;durP1;ratioP1;P1;durP2;ratioP2;P2;SDS_P1;SDS_P2;PMS_P1;PMS_P2;Temp;Humidity;BMP_temperature;BMP_pressure;BME280_temperature;BME280_humidity;BME280_pressure;Samples;Min_cycle;Max_cycle;Signal;HPM_P1;HPM_P2
2022/10/28 00:02:21;;;;;;;;;;;;;;;15.36;73.98;101831.34;5306354;33;34349;-69
2022/10/28 00:05:23;;;;;;;;;;;;;;;15.13;75.29;101832.19;5320564;32;35332;-70
2022/10/28 00:08:25;;;;;;;;;;;;;;;14.70;76.84;101837.22;5308325;32;34413;-66
2022/10/28 00:11:31;;;;;;;;;;;;;;;14.19;80.02;101832.66;5305961;32;34967;-65
2022/10/28 00:14:32;;;;;;;;;;;;;;;13.85;81.29;101838.06;5306724;32;34255;-65
2022/10/28 00:17:34;;;;;;;;;;;;;;;13.91;81.04;101825.56;5306099;33;34709;-65
2022/10/28 00:20:36;;;;;;;;;;;;;;;14.57;79.17;101827.03;5320718;33;34179;-70
2022/10/28 00:23:38;;;;;;;;;;;;;;;14.60;77.99;101832.19;5305975;32;34400;-70
2022/10/28 00:26:44;;;;;;;;;;;;;;;14.43;78.40;101834.53;5295324;32;45245;-66
2022/10/28 00:29:46;;;;;;;;;;;;;;;14.59;79.11;101825.19;5305007;33;35187;-66
2022/10/28 00:32:48;;;;;;;;;;;;;;;15.10;75.77;101832.28;5316424;33;34739;-66
2022/10/28 00:35:50;;;;;;;;;;;;;;;15.02;75.43;101836.13;5310203;32;35565;-72
2022/10/28 00:38:52;;;;;;;;;;;;;;;14.67;75.50;101837.28;5303316;32;35910;-72
2022/10/28 00:41:56;;;;;;;;;;;;;;;15.68;72.07;101827.53;5320460;32;35285;-65
2022/10/28 00:44:59;;;;;;;;;;;;;;;14.56;76.98;101829.72;5305880;32;34338;-70
2022/10/28 00:48:01;;;;;;;;;;;;;;;14.44;77.80;101835.38;5321356;32;35271;-65
2022/10/28 00:51:04;;;;;;;;;;;;;;;14.44;77.07;101819.50;5306328;32;35902;-71
2022/10/28 00:54:05;;;;;;;;;;;;;;;14.11;78.84;101822.31;5312133;32;35383;-65
2022/10/28 00:57:09;;;;;;;;;;;;;;;14.20;77.99;101819.38;5316955;32;35906;-65
2022/10/28 01:00:11;;;;;;;;;;;;;;;14.44;78.46;101824.81;5303631;32;45131;-65
2022/10/28 01:03:13;;;;;;;;;;;;;;;14.25;78.89;101832.44;5321275;32;35313;-70
2022/10/28 01:06:15;;;;;;;;;;;;;;;15.02;76.16;101823.75;5307108;32;35518;-72
2022/10/28 01:09:17;;;;;;;;;;;;;;;14.96;75.40;101813.37;5318528;32;34852;-71
2022/10/28 01:12:28;;;;;;;;;;;;;;;15.06;74.33;101825.34;5305470;33;34205;-66
2022/10/28 01:15:37;;;;;;;;;;;;;;;13.93;80.22;101823.72;5305691;32;35193;-71
2022/10/28 01:18:41;;;;;;;;;;;;;;;15.44;72.68;101823.13;5303983;33;37244;-66
2022/10/28 01:22:02;;;;;;;;;;;;;;;15.65;71.09;101811.78;5305163;33;35197;-67
2022/10/28 01:25:13;;;;;;;;;;;;;;;16.01;69.40;101815.72;5304789;33;35539;-70
2022/10/28 01:28:17;;;;;;;;;;;;;;;14.76;74.87;101818.47;5296637;33;44406;-71
2022/10/28 01:31:19;;;;;;;;;;;;;;;14.73;76.76;101802.69;5310779;32;35845;-65
2022/10/28 01:34:41;;;;;;;;;;;;;;;14.49;76.60;101813.19;5312081;32;35537;-65
2022/10/28 01:37:55;;;;;;;;;;;;;;;14.62;75.38;101798.63;5301311;33;47002;-70
2022/10/28 01:41:10;;;;;;;;;;;;;;;14.61;76.80;101804.81;5318257;33;35185;-65
2022/10/28 01:44:23;;;;;;;;;;;;;;;14.27;78.20;101812.09;5304486;33;44869;-70
2022/10/28 01:47:27;;;;;;;;;;;;;;;14.51;77.43;101810.50;5304964;32;34443;-65
2022/10/28 01:50:36;;;;;;;;;;;;;;;14.20;78.83;101805.28;5317387;33;34529;-65
2022/10/28 01:53:40;;;;;;;;;;;;;;;13.91;80.24;101812.34;5305114;32;35545;-71
2022/10/28 01:56:42;;;;;;;;;;;;;;;14.30;77.05;101804.09;5317813;32;45149;-65
2022/10/28 01:59:44;;;;;;;;;;;;;;;13.80;79.77;101806.50;5305369;32;35599;-71
2022/10/28 02:02:46;;;;;;;;;;;;;;;13.96;79.89;101799.84;5316363;32;35074;-65
2022/10/28 02:05:51;;;;;;;;;;;;;;;13.53;81.70;101801.12;5308058;33;35171;-66
2022/10/28 02:09:12;;;;;;;;;;;;;;;13.72;81.54;101801.47;5303577;32;35882;-71
2022/10/28 02:12:24;;;;;;;;;;;;;;;14.18;79.98;101797.41;5320429;33;45177;-69
2022/10/28 02:15:52;;;;;;;;;;;;;;;15.37;72.44;101792.47;5292354;33;34394;-72
2022/10/28 02:18:54;;;;;;;;;;;;;;;13.74;79.94;101812.84;5312938;32;35559;-70
2022/10/28 02:22:14;;;;;;;;;;;;;;;14.34;78.76;101797.75;5317938;32;35039;-70
2022/10/28 02:25:16;;;;;;;;;;;;;;;13.85;80.29;101804.59;5293631;33;45673;-71
2022/10/28 02:28:20;;;;;;;;;;;;;;;14.48;76.60;101797.34;5311620;32;34937;-71
2022/10/28 02:31:27;;;;;;;;;;;;;;;14.46;77.39;101801.81;5307026;33;35200;-65
2022/10/28 02:34:38;;;;;;;;;;;;;;;14.87;76.05;101800.44;5317730;32;35290;-65
2022/10/28 02:37:41;;;;;;;;;;;;;;;15.15;74.07;101795.91;5305934;32;44674;-66
2022/10/28 02:40:43;;;;;;;;;;;;;;;15.42;72.36;101785.22;5308006;32;34246;-65
2022/10/28 02:43:45;;;;;;;;;;;;;;;15.12;73.68;101796.00;5319895;32;34759;-64
2022/10/28 02:46:47;;;;;;;;;;;;;;;14.79;75.52;101802.47;5310004;33;35191;-70
2022/10/28 02:49:51;;;;;;;;;;;;;;;14.92;74.46;101800.28;5318247;32;34525;-66
2022/10/28 02:52:54;;;;;;;;;;;;;;;13.83;79.77;101807.28;5308407;33;35366;-71
2022/10/28 02:55:56;;;;;;;;;;;;;;;13.95;79.46;101795.47;5314555;32;35046;-65
2022/10/28 02:58:58;;;;;;;;;;;;;;;13.79;80.56;101794.22;5311409;32;35338;-65
2022/10/28 03:01:59;;;;;;;;;;;;;;;14.32;78.70;101789.87;5307334;33;34486;-65
2022/10/28 03:05:02;;;;;;;;;;;;;;;13.92;79.95;101800.00;5320389;33;34225;-65
2022/10/28 03:08:04;;;;;;;;;;;;;;;13.89;80.12;101797.44;5306511;32;34440;-70
2022/10/28 03:11:06;;;;;;;;;;;;;;;14.01;79.66;101795.28;5331493;32;34264;-64
2022/10/28 03:14:08;;;;;;;;;;;;;;;14.25;79.13;101798.94;5307386;32;34959;-65
2022/10/28 03:17:15;;;;;;;;;;;;;;;14.91;75.55;101778.25;5314047;32;44676;-64
2022/10/28 03:20:17;;;;;;;;;;;;;;;15.42;73.13;101787.88;5314653;32;35460;-70
2022/10/28 03:23:18;;;;;;;;;;;;;;;14.74;75.75;101796.47;5306932;33;34615;-65
2022/10/28 03:26:20;;;;;;;;;;;;;;;15.48;72.52;101795.59;5298671;32;35153;-71
2022/10/28 03:29:22;;;;;;;;;;;;;;;14.67;76.79;101794.94;5305048;32;35644;-71
2022/10/28 03:32:24;;;;;;;;;;;;;;;15.11;73.82;101796.94;5325611;32;35364;-65
2022/10/28 03:35:26;;;;;;;;;;;;;;;15.97;70.82;101786.69;5306322;32;34661;-65
2022/10/28 03:38:27;;;;;;;;;;;;;;;16.09;70.06;101793.25;5311204;32;34346;-71
2022/10/28 03:41:29;;;;;;;;;;;;;;;15.50;70.74;101788.44;5315885;33;34891;-71
2022/10/28 03:44:31;;;;;;;;;;;;;;;15.95;71.02;101787.62;5306687;32;33626;-70
2022/10/28 03:47:33;;;;;;;;;;;;;;;15.53;72.71;101792.78;5321210;32;35394;-70
2022/10/28 03:50:35;;;;;;;;;;;;;;;14.84;74.63;101792.59;5305610;32;35395;-70
2022/10/28 03:53:37;;;;;;;;;;;;;;;15.02;74.70;101786.69;5318593;32;35354;-70
2022/10/28 03:56:39;;;;;;;;;;;;;;;14.38;78.18;101788.84;5307462;33;36750;-66
2022/10/28 03:59:41;;;;;;;;;;;;;;;14.50;77.90;101782.31;5311021;32;35737;-66
2022/10/28 04:02:48;;;;;;;;;;;;;;;14.55;77.74;101785.63;5317444;32;35482;-66
2022/10/28 04:05:50;;;;;;;;;;;;;;;14.85;76.87;101786.37;5308825;32;34849;-66
2022/10/28 04:08:51;;;;;;;;;;;;;;;14.81;76.25;101788.28;5320044;32;34717;-71
2022/10/28 04:11:53;;;;;;;;;;;;;;;14.60;76.74;101794.28;5307503;32;34756;-65
2022/10/28 04:14:55;;;;;;;;;;;;;;;14.79;77.35;101794.53;5319607;32;35594;-65
2022/10/28 04:17:57;;;;;;;;;;;;;;;15.11;75.18;101782.81;5293102;32;34937;-71
2022/10/28 04:20:59;;;;;;;;;;;;;;;14.85;75.73;101784.59;5311084;32;35714;-72
2022/10/28 04:24:01;;;;;;;;;;;;;;;15.43;74.74;101781.66;5314383;32;35432;-66
2022/10/28 04:27:03;;;;;;;;;;;;;;;14.06;79.77;101774.84;5285666;32;34122;-66
2022/10/28 04:30:05;;;;;;;;;;;;;;;13.87;81.79;101776.34;5318720;32;35523;-71
2022/10/28 04:33:07;;;;;;;;;;;;;;;13.74;82.74;101778.50;5306873;33;34198;-65
2022/10/28 04:36:09;;;;;;;;;;;;;;;14.46;79.15;101768.31;5317437;32;47150;-71
2022/10/28 04:39:11;;;;;;;;;;;;;;;14.65;79.06;101765.03;5303532;32;35657;-72
2022/10/28 04:42:13;;;;;;;;;;;;;;;14.87;76.37;101760.72;5296626;33;34600;-71
2022/10/28 04:45:14;;;;;;;;;;;;;;;13.68;83.35;101760.19;5317515;32;34611;-71
2022/10/28 04:48:16;;;;;;;;;;;;;;;13.97;81.57;101761.91;5304645;33;34853;-64
2022/10/28 04:51:18;;;;;;;;;;;;;;;14.12;80.13;101765.00;5319265;32;34331;-65
2022/10/28 04:54:20;;;;;;;;;;;;;;;13.46;85.94;101769.63;5304053;32;34913;-70
2022/10/28 04:57:22;;;;;;;;;;;;;;;13.44;83.78;101764.41;5319998;32;34922;-70
2022/10/28 05:00:24;;;;;;;;;;;;;;;14.17;82.27;101757.78;5304907;32;34495;-65
2022/10/28 05:03:26;;;;;;;;;;;;;;;15.05;77.04;101744.19;5308449;33;34265;-65
2022/10/28 05:06:27;;;;;;;;;;;;;;;15.36;74.43;101749.22;5315807;32;35192;-66
2022/10/28 05:09:29;;;;;;;;;;;;;;;14.89;76.08;101754.47;5301786;32;34434;-71
2022/10/28 05:12:31;;;;;;;;;;;;;;;15.31;74.67;101755.63;5319775;32;34437;-70
2022/10/28 05:15:33;;;;;;;;;;;;;;;15.53;73.32;101755.69;5305283;32;34073;-64
2022/10/28 05:18:35;;;;;;;;;;;;;;;15.13;75.46;101755.37;5318376;32;35641;-65
2022/10/28 05:21:37;;;;;;;;;;;;;;;14.77;77.01;101760.19;5304103;32;35980;-64
2022/10/28 05:24:38;;;;;;;;;;;;;;;15.24;75.12;101754.12;5301631;33;37355;-66
2022/10/28 05:27:41;;;;;;;;;;;;;;;13.63;81.53;101758.59;5302802;32;34300;-72
2022/10/28 05:30:42;;;;;;;;;;;;;;;14.58;77.34;101761.75;5303870;32;34352;-67
2022/10/28 05:33:44;;;;;;;;;;;;;;;15.01;76.21;101753.19;5298239;32;37269;-64
2022/10/28 05:36:46;;;;;;;;;;;;;;;15.22;74.51;101762.13;5301624;32;34259;-65
2022/10/28 05:39:48;;;;;;;;;;;;;;;15.19;74.38;101767.50;5304558;32;33964;-72
2022/10/28 05:42:50;;;;;;;;;;;;;;;14.75;77.35;101772.63;5307872;32;35333;-70
2022/10/28 05:45:55;;;;;;;;;;;;;;;14.56;78.47;101771.53;5310173;32;34367;-65
2022/10/28 05:48:57;;;;;;;;;;;;;;;14.81;75.51;101782.09;5318397;32;34525;-68
2022/10/28 05:51:59;;;;;;;;;;;;;;;15.22;74.62;101775.38;5317361;32;35440;-67
2022/10/28 05:55:01;;;;;;;;;;;;;;;14.86;76.30;101777.53;5323970;32;34362;-67
2022/10/28 05:58:03;;;;;;;;;;;;;;;15.25;74.26;101784.97;5309082;32;34258;-66
2022/10/28 06:01:05;;;;;;;;;;;;;;;14.61;76.03;101794.25;5331473;32;35145;-67
2022/10/28 06:04:07;;;;;;;;;;;;;;;14.77;76.56;101789.31;5315511;32;37972;-68
2022/10/28 06:07:09;;;;;;;;;;;;;;;15.23;74.90;101792.13;5313168;32;44308;-70
2022/10/28 06:10:11;;;;;;;;;;;;;;;15.38;73.62;101795.06;5327643;32;34046;-65
2022/10/28 06:13:13;;;;;;;;;;;;;;;15.44;73.18;101804.56;5313492;32;35609;-71
2022/10/28 06:16:15;;;;;;;;;;;;;;;15.45;72.84;101796.56;5329813;32;34256;-62
2022/10/28 06:19:16;;;;;;;;;;;;;;;15.25;73.66;101798.22;5312354;32;34460;-64
2022/10/28 06:22:18;;;;;;;;;;;;;;;15.40;73.24;101797.69;5321900;32;34461;-65
2022/10/28 06:25:20;;;;;;;;;;;;;;;15.13;75.17;101791.56;5302876;32;35291;-73
2022/10/28 06:28:22;;;;;;;;;;;;;;;15.05;75.97;101791.84;5305561;32;35403;-70
2022/10/28 06:31:24;;;;;;;;;;;;;;;15.15;74.81;101789.75;5326058;32;35841;-67
2022/10/28 06:34:26;;;;;;;;;;;;;;;15.14;74.39;101790.69;5313754;32;34988;-65
2022/10/28 06:37:28;;;;;;;;;;;;;;;14.47;78.43;101809.72;5307087;32;35188;-74
2022/10/28 06:40:30;;;;;;;;;;;;;;;15.07;75.25;101810.31;5312987;32;35677;-73
2022/10/28 06:43:32;;;;;;;;;;;;;;;15.05;76.38;101809.53;5326375;32;34413;-75
2022/10/28 06:46:34;;;;;;;;;;;;;;;14.97;74.96;101804.50;5313683;32;34582;-71
2022/10/28 06:49:36;;;;;;;;;;;;;;;15.28;74.32;101806.94;5310373;32;34277;-66
2022/10/28 06:52:38;;;;;;;;;;;;;;;14.39;78.63;101814.34;5326947;32;35740;-67
2022/10/28 06:55:40;;;;;;;;;;;;;;;14.21;79.63;101812.28;5314172;32;44797;-65
2022/10/28 06:58:42;;;;;;;;;;;;;;;15.28;75.80;101801.62;5320210;32;34694;-70
2022/10/28 07:01:44;;;;;;;;;;;;;;;15.64;72.66;101798.56;5308545;32;34261;-72
2022/10/28 07:04:46;;;;;;;;;;;;;;;15.74;71.92;101813.19;5317025;32;33877;-67
2022/10/28 07:07:48;;;;;;;;;;;;;;;15.71;72.07;101823.91;5309865;32;34453;-65
2022/10/28 07:10:57;;;;;;;;;;;;;;;15.33;72.97;101827.97;5314963;32;36296;-71
2022/10/28 07:13:59;;;;;;;;;;;;;;;15.71;71.67;101829.22;5322369;32;34223;-70
2022/10/28 07:17:01;;;;;;;;;;;;;;;15.64;72.28;101820.63;5315963;32;35333;-71
2022/10/28 07:20:03;;;;;;;;;;;;;;;15.78;71.54;101821.88;5317470;32;35428;-68
2022/10/28 07:23:05;;;;;;;;;;;;;;;15.81;71.19;101820.00;5312584;32;34244;-70
2022/10/28 07:26:07;;;;;;;;;;;;;;;15.79;71.10;101818.34;5302665;32;35506;-69
2022/10/28 07:29:09;;;;;;;;;;;;;;;15.62;71.65;101821.62;5309501;32;46673;-73
2022/10/28 07:32:10;;;;;;;;;;;;;;;15.36;72.79;101811.94;5299414;32;36553;-69
2022/10/28 07:35:12;;;;;;;;;;;;;;;14.65;74.39;101821.47;5322015;32;34388;-66
2022/10/28 07:38:14;;;;;;;;;;;;;;;14.12;80.09;101831.09;5311228;32;34552;-67
2022/10/28 07:41:16;;;;;;;;;;;;;;;15.35;74.45;101816.37;5311666;32;34378;-69
2022/10/28 07:44:18;;;;;;;;;;;;;;;15.65;71.93;101824.16;5307755;32;34500;-65
2022/10/28 07:47:21;;;;;;;;;;;;;;;15.37;73.31;101835.72;5325828;32;34379;-72
2022/10/28 07:50:23;;;;;;;;;;;;;;;15.59;72.07;101829.66;5309167;32;34326;-77
2022/10/28 07:53:24;;;;;;;;;;;;;;;15.36;73.14;101830.47;5308667;32;35336;-65
2022/10/28 07:56:29;;;;;;;;;;;;;;;15.30;73.65;101834.22;5324017;32;34328;-70
2022/10/28 07:59:31;;;;;;;;;;;;;;;15.57;72.07;101829.69;5313367;32;34712;-70
2022/10/28 08:02:33;;;;;;;;;;;;;;;15.75;71.00;101835.28;5319277;32;34287;-65
2022/10/28 08:05:35;;;;;;;;;;;;;;;15.71;70.83;101831.84;5310645;32;34303;-67
2022/10/28 08:08:37;;;;;;;;;;;;;;;15.30;72.02;101828.06;5314990;32;35460;-67
2022/10/28 08:11:39;;;;;;;;;;;;;;;15.37;72.84;101824.25;5313262;32;44545;-76
2022/10/28 08:14:41;;;;;;;;;;;;;;;15.64;71.62;101819.75;5311839;32;34457;-70
2022/10/28 08:17:43;;;;;;;;;;;;;;;15.53;71.91;101811.34;5325053;32;35286;-68
2022/10/28 08:20:45;;;;;;;;;;;;;;;15.61;71.51;101811.91;5309536;32;35386;-68
2022/10/28 08:23:47;;;;;;;;;;;;;;;15.70;71.38;101811.56;5325989;32;35404;-69
2022/10/28 08:26:49;;;;;;;;;;;;;;;15.74;70.77;101807.03;5293528;32;35292;-72
2022/10/28 08:29:52;;;;;;;;;;;;;;;15.66;71.22;101810.00;5316554;32;34393;-71
2022/10/28 08:32:54;;;;;;;;;;;;;;;15.24;72.79;101799.13;5318900;32;35961;-68
2022/10/28 08:35:57;;;;;;;;;;;;;;;14.50;76.61;101804.34;5312367;32;34098;-77
2022/10/28 08:39:00;;;;;;;;;;;;;;;15.34;74.50;101814.66;5311033;32;34680;-70
2022/10/28 08:42:18;;;;;;;;;;;;;;;15.28;72.56;101819.31;5305289;32;34987;-72
2022/10/28 08:45:29;;;;;;;;;;;;;;;15.15;74.38;101830.34;5319918;32;34473;-64
2022/10/28 08:48:34;;;;;;;;;;;;;;;14.84;75.67;101822.59;5312717;32;34085;-67
2022/10/28 08:51:55;;;;;;;;;;;;;;;15.76;71.69;101831.69;5313281;32;35313;-68
2022/10/28 08:55:16;;;;;;;;;;;;;;;14.47;77.25;101838.81;5319590;32;35555;-71
2022/10/28 08:58:22;;;;;;;;;;;;;;;15.66;71.73;101831.19;5309598;32;44222;-75
2022/10/28 09:01:37;;;;;;;;;;;;;;;15.38;73.10;101823.34;5313058;32;34839;-67
2022/10/28 09:04:43;;;;;;;;;;;;;;;15.28;72.95;101827.25;5315043;32;44577;-67
2022/10/28 09:07:45;;;;;;;;;;;;;;;15.50;71.04;101833.50;5304234;32;36054;-71
2022/10/28 09:10:52;;;;;;;;;;;;;;;15.30;73.46;101843.94;5317679;32;34408;-69
2022/10/28 09:14:00;;;;;;;;;;;;;;;15.45;72.82;101844.25;5292307;32;35721;-70
2022/10/28 09:17:01;;;;;;;;;;;;;;;15.49;71.89;101844.16;5311051;32;34127;-71
2022/10/28 09:20:22;;;;;;;;;;;;;;;16.13;67.68;101837.31;5297450;32;34327;-70
2022/10/28 09:23:31;;;;;;;;;;;;;;;16.05;69.33;101843.84;5313436;32;35530;-72
2022/10/28 09:26:36;;;;;;;;;;;;;;;15.90;69.87;101830.22;5288837;32;34594;-64
2022/10/28 09:29:43;;;;;;;;;;;;;;;15.73;70.79;101831.81;5311891;32;34270;-64
2022/10/28 09:33:06;;;;;;;;;;;;;;;16.35;67.09;101839.97;5314657;32;45831;-64
2022/10/28 09:36:10;;;;;;;;;;;;;;;15.48;71.30;101842.44;5303887;32;35684;-65
2022/10/28 09:39:13;;;;;;;;;;;;;;;15.61;72.06;101841.91;5308505;32;44455;-70
2022/10/28 09:42:21;;;;;;;;;;;;;;;15.33;72.55;101842.06;5319771;32;35739;-71
2022/10/28 09:45:24;;;;;;;;;;;;;;;16.16;69.19;101831.00;5308392;32;34277;-70
2022/10/28 09:48:27;;;;;;;;;;;;;;;16.39;67.32;101828.31;5323245;32;34441;-75
2022/10/28 09:51:32;;;;;;;;;;;;;;;14.61;75.98;101827.78;5306068;32;34275;-66
2022/10/28 09:54:38;;;;;;;;;;;;;;;15.03;74.90;101836.06;5319393;32;34835;-65
2022/10/28 09:57:40;;;;;;;;;;;;;;;15.87;71.15;101840.13;5293319;32;44595;-73
2022/10/28 10:00:42;;;;;;;;;;;;;;;15.04;72.98;101843.06;5308465;32;34957;-63
2022/10/28 10:03:47;;;;;;;;;;;;;;;15.43;72.25;101834.63;5305258;32;36470;-73
2022/10/28 10:06:51;;;;;;;;;;;;;;;16.31;67.45;101829.56;5305109;32;34370;-72
2022/10/28 10:09:54;;;;;;;;;;;;;;;15.17;73.56;101831.13;5308257;32;33568;-64
2022/10/28 10:12:58;;;;;;;;;;;;;;;15.19;72.58;101831.06;5306259;32;35663;-62
2022/10/28 10:16:12;;;;;;;;;;;;;;;16.00;69.22;101825.47;5314974;32;36260;-72
2022/10/28 10:19:13;;;;;;;;;;;;;;;14.60;74.96;101832.19;5316645;32;44454;-62
2022/10/28 10:22:35;;;;;;;;;;;;;;;15.90;69.34;101837.31;5307383;32;36079;-73
2022/10/28 10:25:36;;;;;;;;;;;;;;;15.46;71.90;101834.53;5300855;32;34232;-71
2022/10/28 10:28:42;;;;;;;;;;;;;;;16.56;66.39;101830.28;5295010;32;36370;-74
2022/10/28 10:31:44;;;;;;;;;;;;;;;16.46;66.49;101839.53;5320052;32;44661;-64
2022/10/28 10:35:05;;;;;;;;;;;;;;;16.66;65.50;101833.41;5287407;32;34703;-70
2022/10/28 10:38:12;;;;;;;;;;;;;;;16.37;66.82;101827.53;5319251;32;33358;-66
2022/10/28 10:41:33;;;;;;;;;;;;;;;16.41;66.41;101828.25;5311069;32;44597;-75
2022/10/28 10:44:35;;;;;;;;;;;;;;;16.66;65.63;101828.97;5309681;32;33428;-73
2022/10/28 10:47:37;;;;;;;;;;;;;;;16.74;64.82;101826.91;5316351;32;35121;-66
2022/10/28 10:50:39;;;;;;;;;;;;;;;16.63;65.39;101823.81;5310837;32;44523;-68
2022/10/28 10:53:42;;;;;;;;;;;;;;;16.15;68.09;101829.28;5304156;32;44207;-71
2022/10/28 10:56:46;;;;;;;;;;;;;;;15.83;69.29;101814.62;5308712;32;35175;-69
2022/10/28 10:59:51;;;;;;;;;;;;;;;15.61;70.46;101814.56;5308703;32;34258;-66
2022/10/28 11:02:53;;;;;;;;;;;;;;;16.33;67.59;101806.47;5324424;32;34271;-71
2022/10/28 11:05:57;;;;;;;;;;;;;;;16.35;67.36;101809.91;5308194;32;34356;-67
2022/10/28 11:09:31;;;;;;;;;;;;;;;15.27;70.77;101815.78;5308512;32;34689;-74
2022/10/28 11:12:37;;;;;;;;;;;;;;;14.58;75.49;101825.25;5325445;32;35353;-68
2022/10/28 11:15:39;;;;;;;;;;;;;;;15.66;71.73;101810.84;5302056;32;44730;-75
2022/10/28 11:18:42;;;;;;;;;;;;;;;16.10;69.38;101810.03;5324125;32;34401;-71
2022/10/28 11:21:49;;;;;;;;;;;;;;;15.75;70.08;101814.94;5311179;32;34195;-71
2022/10/28 11:24:51;;;;;;;;;;;;;;;16.08;67.79;101810.09;5307551;32;33387;-65
2022/10/28 11:28:10;;;;;;;;;;;;;;;14.98;72.90;101818.59;5306986;32;42357;-62
2022/10/28 11:31:12;;;;;;;;;;;;;;;16.18;68.72;101802.66;5311869;32;46066;-68
2022/10/28 11:34:19;;;;;;;;;;;;;;;15.79;69.99;101805.09;5318436;32;36707;-69
2022/10/28 11:37:37;;;;;;;;;;;;;;;15.83;69.99;101806.69;5301262;32;34377;-70
2022/10/28 11:40:39;;;;;;;;;;;;;;;15.58;69.78;101809.34;5306445;32;35778;-64
2022/10/28 11:43:47;;;;;;;;;;;;;;;15.33;73.27;101801.47;5309982;32;36070;-69
2022/10/28 11:47:05;;;;;;;;;;;;;;;16.66;66.60;101789.16;5307873;32;34760;-72
2022/10/28 11:50:19;;;;;;;;;;;;;;;16.73;65.55;101780.03;5325432;32;35216;-64
2022/10/28 11:53:35;;;;;;;;;;;;;;;15.62;70.14;101782.72;5307435;32;34590;-63
2022/10/28 11:56:38;;;;;;;;;;;;;;;15.14;72.39;101774.78;5318333;32;37243;-71
2022/10/28 11:59:59;;;;;;;;;;;;;;;15.96;70.09;101779.63;5301369;32;46226;-67
2022/10/28 12:03:04;;;;;;;;;;;;;;;15.88;69.81;101783.50;5305967;32;35261;-66
2022/10/28 12:06:12;;;;;;;;;;;;;;;15.56;71.57;101776.75;5325018;32;34461;-66
2022/10/28 12:09:34;;;;;;;;;;;;;;;15.31;71.95;101775.00;5307930;32;44890;-75
2022/10/28 12:12:36;;;;;;;;;;;;;;;14.92;74.82;101772.03;5294289;32;34984;-76
2022/10/28 12:15:44;;;;;;;;;;;;;;;15.13;74.03;101768.63;5304402;33;45150;-76
2022/10/28 12:18:59;;;;;;;;;;;;;;;14.98;75.70;101763.00;5309789;32;34578;-74
2022/10/28 12:22:04;;;;;;;;;;;;;;;15.41;72.86;101764.97;5320225;33;34313;-65
2022/10/28 12:25:07;;;;;;;;;;;;;;;15.20;74.52;101758.69;5293611;32;34342;-65
2022/10/28 12:28:15;;;;;;;;;;;;;;;15.96;71.09;101749.59;5309064;32;44755;-67
2022/10/28 12:31:24;;;;;;;;;;;;;;;14.61;75.13;101759.84;5313660;32;35739;-67
2022/10/28 12:34:37;;;;;;;;;;;;;;;16.18;69.33;101758.44;5305997;32;34393;-75
2022/10/28 12:37:40;;;;;;;;;;;;;;;16.18;69.16;101755.78;5318884;32;44929;-76
2022/10/28 12:40:50;;;;;;;;;;;;;;;15.78;71.90;101745.91;5307781;32;34799;-67
2022/10/28 12:44:01;;;;;;;;;;;;;;;15.38;72.07;101746.50;5319727;32;35671;-74
2022/10/28 12:47:21;;;;;;;;;;;;;;;16.25;69.38;101740.47;5310073;32;34809;-67
2022/10/28 12:50:32;;;;;;;;;;;;;;;16.29;68.66;101738.53;5308263;32;35058;-67
2022/10/28 12:53:34;;;;;;;;;;;;;;;16.06;70.06;101748.31;5324408;32;35204;-76
2022/10/28 12:56:36;;;;;;;;;;;;;;;16.21;68.90;101746.81;5308706;32;34123;-67
2022/10/28 13:00:05;;;;;;;;;;;;;;;15.26;73.38;101739.88;5324714;32;44885;-67
2022/10/28 13:03:10;;;;;;;;;;;;;;;16.25;69.76;101741.31;5311845;32;35563;-67
2022/10/28 13:06:20;;;;;;;;;;;;;;;15.56;72.16;101737.88;5294060;33;45407;-74
2022/10/28 13:09:22;;;;;;;;;;;;;;;16.36;69.12;101718.78;5322846;32;35816;-67
2022/10/28 13:12:47;;;;;;;;;;;;;;;16.01;69.86;101725.56;5305603;32;34806;-76
2022/10/28 13:15:52;;;;;;;;;;;;;;;16.47;68.76;101714.75;5301360;33;34759;-65
2022/10/28 13:19:20;;;;;;;;;;;;;;;15.21;74.80;101722.47;5307800;32;35598;-67
2022/10/28 13:22:44;;;;;;;;;;;;;;;15.27;74.94;101724.87;5306157;32;34963;-75
2022/10/28 13:26:04;;;;;;;;;;;;;;;15.90;71.79;101726.84;5302463;32;46961;-66
2022/10/28 13:29:06;;;;;;;;;;;;;;;15.44;72.75;101733.03;5305153;32;34423;-76
2022/10/28 13:32:27;;;;;;;;;;;;;;;15.86;73.26;101732.34;5313930;33;35901;-66
2022/10/28 13:35:28;;;;;;;;;;;;;;;16.34;69.98;101720.63;5319728;32;35132;-74
2022/10/28 13:38:30;;;;;;;;;;;;;;;16.46;69.32;101714.81;5303014;32;34143;-67
2022/10/28 13:41:36;;;;;;;;;;;;;;;16.28;69.79;101726.19;5324259;33;35991;-76
2022/10/28 13:44:48;;;;;;;;;;;;;;;15.92;71.54;101735.63;5304670;32;34700;-68
2022/10/28 13:47:50;;;;;;;;;;;;;;;14.99;74.75;101731.16;5319248;32;35766;-68
2022/10/28 13:51:04;;;;;;;;;;;;;;;16.09;71.46;101721.66;5316097;32;35181;-75
2022/10/28 13:54:11;;;;;;;;;;;;;;;16.36;69.99;101716.13;5307399;32;34161;-68
2022/10/28 13:57:22;;;;;;;;;;;;;;;15.56;73.39;101718.47;5308996;33;44956;-76
2022/10/28 14:00:24;;;;;;;;;;;;;;;15.61;73.50;101716.50;5280890;32;851628;-77
2022/10/28 14:03:26;;;;;;;;;;;;;;;15.69;73.44;101727.69;5322496;33;34318;-76
2022/10/28 14:06:31;;;;;;;;;;;;;;;16.29;71.02;101728.78;5308453;32;34410;-76
2022/10/28 14:09:34;;;;;;;;;;;;;;;15.11;75.74;101733.38;5308271;32;34300;-66
2022/10/28 14:12:35;;;;;;;;;;;;;;;16.39;70.33;101724.84;5321294;33;35233;-75
2022/10/28 14:15:37;;;;;;;;;;;;;;;16.52;68.83;101736.66;5296050;33;35595;-65
2022/10/28 14:18:39;;;;;;;;;;;;;;;16.44;69.16;101729.97;5323361;32;44858;-77
2022/10/28 14:21:45;;;;;;;;;;;;;;;15.76;72.08;101731.81;5307105;32;34618;-75
2022/10/28 14:24:48;;;;;;;;;;;;;;;15.78;73.47;101734.41;5313518;32;34675;-66
2022/10/28 14:27:50;;;;;;;;;;;;;;;16.43;69.86;101725.59;5297227;32;36024;-66
2022/10/28 14:31:09;;;;;;;;;;;;;;;15.97;70.92;101735.41;5306734;32;34963;-66
2022/10/28 14:34:11;;;;;;;;;;;;;;;15.49;75.04;101728.44;5318983;32;44405;-67
2022/10/28 14:37:17;;;;;;;;;;;;;;;14.72;77.36;101724.22;5304354;32;35848;-76
2022/10/28 14:40:23;;;;;;;;;;;;;;;15.43;75.73;101726.00;5322935;33;34159;-75
2022/10/28 14:43:30;;;;;;;;;;;;;;;16.34;70.61;101721.50;5308174;32;34562;-67
2022/10/28 14:46:53;;;;;;;;;;;;;;;16.16;71.55;101722.25;5322477;32;34991;-76
2022/10/28 14:50:01;;;;;;;;;;;;;;;15.07;76.40;101721.19;5308360;33;34888;-67
2022/10/28 14:53:04;;;;;;;;;;;;;;;15.61;74.16;101721.81;5306671;32;35574;-73
2022/10/28 14:56:18;;;;;;;;;;;;;;;15.24;76.55;101730.28;5311116;32;34159;-72
2022/10/28 14:59:23;;;;;;;;;;;;;;;16.18;72.15;101720.44;5305789;33;35076;-66
2022/10/28 15:02:28;;;;;;;;;;;;;;;15.92;73.17;101709.09;5309357;32;35513;-73
2022/10/28 15:05:31;;;;;;;;;;;;;;;14.92;77.06;101721.72;5321448;32;34783;-72
2022/10/28 15:08:33;;;;;;;;;;;;;;;14.87;79.34;101715.72;5305666;32;34208;-65
2022/10/28 15:11:35;;;;;;;;;;;;;;;15.73;74.22;101708.09;5322725;32;34298;-66
2022/10/28 15:14:50;;;;;;;;;;;;;;;15.97;73.60;101719.50;5304725;32;34090;-73
2022/10/28 15:17:53;;;;;;;;;;;;;;;14.81;78.56;101706.25;5318618;32;35468;-74
2022/10/28 15:21:10;;;;;;;;;;;;;;;15.76;75.50;101705.31;5308588;32;35865;-66
2022/10/28 15:24:12;;;;;;;;;;;;;;;15.55;75.75;101701.69;5301983;32;45015;-74
2022/10/28 15:27:14;;;;;;;;;;;;;;;15.52;77.15;101707.13;5298445;32;35347;-65
2022/10/28 15:30:22;;;;;;;;;;;;;;;16.04;73.16;101681.22;5300569;32;34698;-74
2022/10/28 15:33:31;;;;;;;;;;;;;;;15.95;74.00;101687.75;5320249;32;35415;-65
2022/10/28 15:36:33;;;;;;;;;;;;;;;16.16;73.56;101686.00;5304655;32;35550;-71
2022/10/28 15:39:36;;;;;;;;;;;;;;;16.06;73.74;101683.81;5303425;32;34539;-73
2022/10/28 15:42:39;;;;;;;;;;;;;;;16.41;70.80;101683.16;5319191;32;34155;-73
2022/10/28 15:45:41;;;;;;;;;;;;;;;15.57;75.25;101685.72;5305836;32;44992;-66
2022/10/28 15:48:43;;;;;;;;;;;;;;;16.03;72.44;101682.13;5319592;32;34439;-74
2022/10/28 15:52:03;;;;;;;;;;;;;;;15.49;74.82;101686.03;5302867;32;35903;-74